sensor_id;sensor_type;location;lat;lon;timestamp;pressure;altitude;pressure_sealevel;temperature;humidity
9419;BME280;4748;50.802;7.132;2023-05-23T03:32:23;101146.47;;;16.57;100.00
9419;BME280;4748;50.802;7.132;2023-05-23T03:34:49;101153.22;;;16.54;100.00
9419;BME280;4748;50.802;7.132;2023-05-23T03:37:14;101159.94;;;16.52;100.00
9419;BME280;4748;50.802;7.132;2023-05-23T03:39:39;101153.44;;;16.53;100.00
9419;BME280;4748;50.802;7.132;2023-05-23T03:42:05;101159.44;;;16.55;100.00
9419;BME280;4748;50.802;7.132;2023-05-23T03:44:31;101157.72;;;16.49;100.00
9419;BME280;4748;50.802;7.132;2023-05-23T03:46:56;101160.66;;;16.47;100.00
9419;BME280;4748;50.802;7.132;2023-05-23T03:49:21;101160.31;;;16.44;100.00
9419;BME280;4748;50.802;7.132;2023-05-23T03:51:47;101156.81;;;16.43;100.00
9419;BME280;4748;50.802;7.132;2023-05-23T03:54:12;101161.41;;;16.43;100.00
9419;BME280;4748;50.802;7.132;2023-05-23T03:56:37;101152.13;;;16.39;100.00
9419;BME280;4748;50.802;7.132;2023-05-23T03:59:03;101155.34;;;16.36;100.00
9419;BME280;4748;50.802;7.132;2023-05-23T04:01:28;101156.88;;;16.32;100.00
9419;BME280;4748;50.802;7.132;2023-05-23T04:03:53;101151.13;;;16.29;100.00
9419;BME280;4748;50.802;7.132;2023-05-23T04:06:19;101155.16;;;16.26;100.00
9419;BME280;4748;50.802;7.132;2023-05-23T04:08:45;101156.09;;;16.20;100.00
9419;BME280;4748;50.802;7.132;2023-05-23T04:11:10;101157.91;;;16.15;100.00
9419;BME280;4748;50.802;7.132;2023-05-23T04:13:36;101155.03;;;16.05;100.00
9419;BME280;4748;50.802;7.132;2023-05-23T04:16:02;101155.47;;;16.02;100.00
9419;BME280;4748;50.802;7.132;2023-05-23T04:18:30;101154.09;;;15.99;100.00
9419;BME280;4748;50.802;7.132;2023-05-23T04:20:57;101160.00;;;15.96;100.00
9419;BME280;4748;50.802;7.132;2023-05-23T04:23:23;101159.25;;;16.01;100.00
9419;BME280;4748;50.802;7.132;2023-05-23T04:25:48;101164.41;;;16.02;100.00
9419;BME280;4748;50.802;7.132;2023-05-23T04:28:13;101163.94;;;16.05;100.00
9419;BME280;4748;50.802;7.132;2023-05-23T04:30:41;101171.94;;;16.00;100.00
9419;BME280;4748;50.802;7.132;2023-05-23T04:33:07;101172.75;;;16.01;100.00
9419;BME280;4748;50.802;7.132;2023-05-23T04:35:32;101175.13;;;15.97;100.00
9419;BME280;4748;50.802;7.132;2023-05-23T04:37:58;101171.94;;;16.00;100.00
9419;BME280;4748;50.802;7.132;2023-05-23T04:40:23;101169.81;;;16.02;100.00
9419;BME280;4748;50.802;7.132;2023-05-23T04:42:49;101167.59;;;15.99;100.00
9419;BME280;4748;50.802;7.132;2023-05-23T04:45:16;101172.91;;;15.94;100.00
9419;BME280;4748;50.802;7.132;2023-05-23T04:47:41;101178.97;;;16.01;100.00
9419;BME280;4748;50.802;7.132;2023-05-23T04:50:09;101171.13;;;16.00;100.00
9419;BME280;4748;50.802;7.132;2023-05-23T04:52:35;101183.31;;;16.02;100.00
9419;BME280;4748;50.802;7.132;2023-05-23T04:55:00;101176.03;;;16.03;100.00
9419;BME280;4748;50.802;7.132;2023-05-23T04:57:26;101172.28;;;16.04;100.00
9419;BME280;4748;50.802;7.132;2023-05-23T04:59:51;101178.50;;;16.04;100.00
9419;BME280;4748;50.802;7.132;2023-05-23T05:02:17;101176.16;;;16.08;100.00
9419;BME280;4748;50.802;7.132;2023-05-23T05:04:43;101192.00;;;16.04;100.00
9419;BME280;4748;50.802;7.132;2023-05-23T05:07:08;101184.72;;;16.05;100.00
9419;BME280;4748;50.802;7.132;2023-05-23T05:09:34;101186.09;;;16.07;100.00
9419;BME280;4748;50.802;7.132;2023-05-23T05:11:59;101184.00;;;16.09;100.00
9419;BME280;4748;50.802;7.132;2023-05-23T05:14:25;101184.56;;;16.11;100.00
9419;BME280;4748;50.802;7.132;2023-05-23T05:16:51;101192.66;;;16.11;100.00
9419;BME280;4748;50.802;7.132;2023-05-23T05:19:18;101193.28;;;16.13;100.00
9419;BME280;4748;50.802;7.132;2023-05-23T05:21:44;101197.28;;;16.11;100.00
9419;BME280;4748;50.802;7.132;2023-05-23T05:24:09;101189.97;;;16.11;100.00
9419;BME280;4748;50.802;7.132;2023-05-23T05:26:35;101201.25;;;16.08;100.00
9419;BME280;4748;50.802;7.132;2023-05-23T05:29:01;101202.66;;;16.11;100.00
9419;BME280;4748;50.802;7.132;2023-05-23T05:31:26;101197.41;;;16.04;100.00
9419;BME280;4748;50.802;7.132;2023-05-23T05:33:51;101199.28;;;16.04;100.00
9419;BME280;4748;50.802;7.132;2023-05-23T05:36:18;101196.34;;;16.05;100.00
9419;BME280;4748;50.802;7.132;2023-05-23T05:38:44;101204.94;;;16.02;100.00
9419;BME280;4748;50.802;7.132;2023-05-23T05:41:09;101199.78;;;16.01;100.00
9419;BME280;4748;50.802;7.132;2023-05-23T05:43:35;101196.84;;;16.02;100.00
9419;BME280;4748;50.802;7.132;2023-05-23T05:46:00;101207.63;;;16.02;100.00
9419;BME280;4748;50.802;7.132;2023-05-23T05:48:27;101214.28;;;16.11;100.00
9419;BME280;4748;50.802;7.132;2023-05-23T05:50:52;101216.50;;;16.14;100.00
9419;BME280;4748;50.802;7.132;2023-05-23T05:53:17;101211.34;;;16.13;100.00
9419;BME280;4748;50.802;7.132;2023-05-23T05:55:43;101216.19;;;16.11;100.00
9419;BME280;4748;50.802;7.132;2023-05-23T05:58:08;101215.78;;;16.19;100.00
9419;BME280;4748;50.802;7.132;2023-05-23T06:00:33;101219.31;;;16.19;100.00
9419;BME280;4748;50.802;7.132;2023-05-23T06:03:06;101222.34;;;16.23;100.00
9419;BME280;4748;50.802;7.132;2023-05-23T06:05:31;101223.28;;;16.28;100.00
9419;BME280;4748;50.802;7.132;2023-05-23T06:07:56;101225.25;;;16.33;100.00
9419;BME280;4748;50.802;7.132;2023-05-23T06:10:22;101227.72;;;16.34;100.00
9419;BME280;4748;50.802;7.132;2023-05-23T06:12:48;101229.75;;;16.27;100.00
9419;BME280;4748;50.802;7.132;2023-05-23T06:15:14;101236.56;;;16.30;100.00
9419;BME280;4748;50.802;7.132;2023-05-23T06:17:40;101241.16;;;16.29;100.00
9419;BME280;4748;50.802;7.132;2023-05-23T06:20:06;101240.00;;;16.25;100.00
9419;BME280;4748;50.802;7.132;2023-05-23T06:22:32;101230.69;;;16.21;100.00
9419;BME280;4748;50.802;7.132;2023-05-23T06:24:57;101246.09;;;16.21;100.00
9419;BME280;4748;50.802;7.132;2023-05-23T06:27:23;101236.22;;;16.26;100.00
9419;BME280;4748;50.802;7.132;2023-05-23T06:29:48;101239.44;;;16.23;100.00
9419;BME280;4748;50.802;7.132;2023-05-23T06:32:13;101242.13;;;16.23;100.00
9419;BME280;4748;50.802;7.132;2023-05-23T06:34:39;101235.03;;;16.22;100.00
9419;BME280;4748;50.802;7.132;2023-05-23T06:37:04;101241.16;;;16.18;100.00
9419;BME280;4748;50.802;7.132;2023-05-23T06:39:29;101244.69;;;16.18;100.00
9419;BME280;4748;50.802;7.132;2023-05-23T06:41:55;101240.56;;;16.16;100.00
9419;BME280;4748;50.802;7.132;2023-05-23T06:44:20;101244.69;;;16.18;100.00
9419;BME280;4748;50.802;7.132;2023-05-23T06:46:46;101247.38;;;16.18;100.00
9419;BME280;4748;50.802;7.132;2023-05-23T06:49:12;101243.38;;;16.21;100.00
9419;BME280;4748;50.802;7.132;2023-05-23T06:51:37;101251.75;;;16.19;100.00
9419;BME280;4748;50.802;7.132;2023-05-23T06:54:03;101250.22;;;16.23;100.00
9419;BME280;4748;50.802;7.132;2023-05-23T06:56:28;101259.97;;;16.24;100.00
9419;BME280;4748;50.802;7.132;2023-05-23T06:58:54;101257.94;;;16.20;100.00
9419;BME280;4748;50.802;7.132;2023-05-23T07:01:19;101262.88;;;16.23;100.00
9419;BME280;4748;50.802;7.132;2023-05-23T07:03:44;101252.44;;;16.26;100.00
9419;BME280;4748;50.802;7.132;2023-05-23T07:06:10;101253.97;;;16.22;100.00
9419;BME280;4748;50.802;7.132;2023-05-23T07:08:36;101260.16;;;16.23;100.00
9419;BME280;4748;50.802;7.132;2023-05-23T07:11:02;101265.50;;;16.18;100.00
9419;BME280;4748;50.802;7.132;2023-05-23T07:13:27;101259.66;;;16.09;100.00
9419;BME280;4748;50.802;7.132;2023-05-23T07:15:53;101273.84;;;16.16;100.00
9419;BME280;4748;50.802;7.132;2023-05-23T07:18:19;101271.84;;;16.12;100.00
9419;BME280;4748;50.802;7.132;2023-05-23T07:20:44;101271.63;;;16.13;100.00
9419;BME280;4748;50.802;7.132;2023-05-23T07:23:09;101274.31;;;16.13;100.00
9419;BME280;4748;50.802;7.132;2023-05-23T07:25:35;101274.88;;;16.15;100.00
9419;BME280;4748;50.802;7.132;2023-05-23T07:28:00;101273.84;;;16.16;100.00
9419;BME280;4748;50.802;7.132;2023-05-23T07:30:25;101268.91;;;16.13;100.00
9419;BME280;4748;50.802;7.132;2023-05-23T07:32:51;101284.50;;;16.23;100.00
9419;BME280;4748;50.802;7.132;2023-05-23T07:35:19;101276.03;;;16.31;100.00
9419;BME280;4748;50.802;7.132;2023-05-23T07:37:48;101277.53;;;16.38;100.00
9419;BME280;4748;50.802;7.132;2023-05-23T07:40:13;101273.78;;;16.39;100.00
9419;BME280;4748;50.802;7.132;2023-05-23T07:42:39;101276.56;;;16.44;100.00
9419;BME280;4748;50.802;7.132;2023-05-23T07:45:05;101272.31;;;16.48;100.00
9419;BME280;4748;50.802;7.132;2023-05-23T07:47:30;101280.97;;;16.50;100.00
9419;BME280;4748;50.802;7.132;2023-05-23T07:49:56;101290.19;;;16.49;100.00
9419;BME280;4748;50.802;7.132;2023-05-23T07:52:21;101288.53;;;16.48;100.00
9419;BME280;4748;50.802;7.132;2023-05-23T07:54:46;101283.69;;;16.50;100.00
9419;BME280;4748;50.802;7.132;2023-05-23T07:57:12;101289.34;;;16.48;100.00
9419;BME280;4748;50.802;7.132;2023-05-23T07:59:39;101299.34;;;16.48;100.00
9419;BME280;4748;50.802;7.132;2023-05-23T08:02:05;101299.47;;;16.41;100.00
9419;BME280;4748;50.802;7.132;2023-05-23T08:04:30;101306.28;;;16.44;100.00
9419;BME280;4748;50.802;7.132;2023-05-23T08:06:56;101316.97;;;16.50;100.00
9419;BME280;4748;50.802;7.132;2023-05-23T08:09:22;101309.19;;;16.54;100.00
9419;BME280;4748;50.802;7.132;2023-05-23T08:11:48;101310.91;;;16.60;100.00
9419;BME280;4748;50.802;7.132;2023-05-23T08:14:13;101320.78;;;16.66;100.00
9419;BME280;4748;50.802;7.132;2023-05-23T08:16:39;101327.44;;;16.75;100.00
9419;BME280;4748;50.802;7.132;2023-05-23T08:19:04;101336.72;;;16.79;100.00
9419;BME280;4748;50.802;7.132;2023-05-23T08:21:30;101334.19;;;16.88;100.00
9419;BME280;4748;50.802;7.132;2023-05-23T08:23:56;101334.06;;;16.84;100.00
9419;BME280;4748;50.802;7.132;2023-05-23T08:26:21;101338.91;;;16.82;100.00
9419;BME280;4748;50.802;7.132;2023-05-23T08:28:47;101345.94;;;16.83;100.00
9419;BME280;4748;50.802;7.132;2023-05-23T08:31:12;101341.22;;;16.89;100.00
9419;BME280;4748;50.802;7.132;2023-05-23T08:33:38;101337.94;;;16.87;100.00
9419;BME280;4748;50.802;7.132;2023-05-23T08:36:03;101353.13;;;16.88;100.00
9419;BME280;4748;50.802;7.132;2023-05-23T08:38:28;101354.56;;;16.80;100.00
9419;BME280;4748;50.802;7.132;2023-05-23T08:40:55;101342.91;;;16.79;100.00
9419;BME280;4748;50.802;7.132;2023-05-23T08:43:20;101348.56;;;16.78;100.00
9419;BME280;4748;50.802;7.132;2023-05-23T08:45:48;101346.53;;;16.85;100.00
9419;BME280;4748;50.802;7.132;2023-05-23T08:48:16;101353.13;;;16.88;100.00
9419;BME280;4748;50.802;7.132;2023-05-23T08:50:46;101351.47;;;16.87;100.00
9419;BME280;4748;50.802;7.132;2023-05-23T08:53:15;101356.94;;;16.92;100.00
9419;BME280;4748;50.802;7.132;2023-05-23T08:55:48;101362.47;;;16.97;100.00
9419;BME280;4748;50.802;7.132;2023-05-23T08:58:16;101369.78;;;16.97;100.00
9419;BME280;4748;50.802;7.132;2023-05-23T09:00:45;101375.75;;;16.99;100.00
9419;BME280;4748;50.802;7.132;2023-05-23T09:03:11;101374.28;;;16.91;100.00
9419;BME280;4748;50.802;7.132;2023-05-23T09:05:37;101371.06;;;16.94;100.00
9419;BME280;4748;50.802;7.132;2023-05-23T09:08:02;101374.84;;;16.93;100.00
9419;BME280;4748;50.802;7.132;2023-05-23T09:10:28;101377.84;;;16.81;100.00
9419;BME280;4748;50.802;7.132;2023-05-23T09:12:54;101378.47;;;16.71;100.00
9419;BME280;4748;50.802;7.132;2023-05-23T09:15:20;101368.38;;;16.67;100.00
9419;BME280;4748;50.802;7.132;2023-05-23T09:17:46;101370.06;;;16.56;100.00
9419;BME280;4748;50.802;7.132;2023-05-23T09:20:13;101367.00;;;16.53;100.00
9419;BME280;4748;50.802;7.132;2023-05-23T09:22:40;101371.16;;;16.44;100.00
9419;BME280;4748;50.802;7.132;2023-05-23T09:25:06;101368.25;;;16.34;100.00
9419;BME280;4748;50.802;7.132;2023-05-23T09:27:31;101365.00;;;16.32;100.00
9419;BME280;4748;50.802;7.132;2023-05-23T09:29:57;101372.13;;;16.38;100.00
9419;BME280;4748;50.802;7.132;2023-05-23T09:32:22;101371.88;;;16.39;100.00
9419;BME280;4748;50.802;7.132;2023-05-23T09:34:56;101380.00;;;16.39;100.00
9419;BME280;4748;50.802;7.132;2023-05-23T09:37:34;101372.56;;;16.46;100.00
9419;BME280;4748;50.802;7.132;2023-05-23T09:40:01;101380.13;;;16.44;100.00
9419;BME280;4748;50.802;7.132;2023-05-23T09:42:31;101383.16;;;16.48;100.00
9419;BME280;4748;50.802;7.132;2023-05-23T09:44:58;101391.97;;;16.43;100.00
9419;BME280;4748;50.802;7.132;2023-05-23T09:47:24;101383.72;;;16.50;100.00
9419;BME280;4748;50.802;7.132;2023-05-23T09:49:50;101388.28;;;16.61;100.00
9419;BME280;4748;50.802;7.132;2023-05-23T09:52:15;101391.47;;;16.58;100.00
9419;BME280;4748;50.802;7.132;2023-05-23T09:54:42;101399.41;;;16.76;100.00
9419;BME280;4748;50.802;7.132;2023-05-23T09:57:09;101393.06;;;16.70;100.00
9419;BME280;4748;50.802;7.132;2023-05-23T09:59:38;101399.47;;;16.81;100.00
9419;BME280;4748;50.802;7.132;2023-05-23T10:02:06;101388.84;;;16.90;100.00
9419;BME280;4748;50.802;7.132;2023-05-23T10:04:33;101394.19;;;17.02;100.00
9419;BME280;4748;50.802;7.132;2023-05-23T10:07:09;101405.84;;;17.02;100.00
9419;BME280;4748;50.802;7.132;2023-05-23T10:09:39;101403.72;;;17.04;100.00
9419;BME280;4748;50.802;7.132;2023-05-23T10:14:59;101412.50;;;17.11;100.00
9419;BME280;4748;50.802;7.132;2023-05-23T10:20:32;101418.97;;;16.94;100.00
9419;BME280;4748;50.802;7.132;2023-05-23T10:23:00;101427.09;;;16.83;100.00
9419;BME280;4748;50.802;7.132;2023-05-23T10:25:27;101428.91;;;16.77;100.00
9419;BME280;4748;50.802;7.132;2023-05-23T10:27:56;101425.59;;;16.75;100.00
9419;BME280;4748;50.802;7.132;2023-05-23T10:30:26;101418.78;;;16.73;100.00
9419;BME280;4748;50.802;7.132;2023-05-23T10:32:52;101434.25;;;16.61;100.00
9419;BME280;4748;50.802;7.132;2023-05-23T10:35:36;101438.28;;;16.47;100.00
9419;BME280;4748;50.802;7.132;2023-05-23T10:40:48;101444.25;;;16.60;100.00
9419;BME280;4748;50.802;7.132;2023-05-23T10:45:51;101441.78;;;16.86;100.00
9419;BME280;4748;50.802;7.132;2023-05-23T10:48:20;101437.13;;;17.10;100.00
9419;BME280;4748;50.802;7.132;2023-05-23T10:51:01;101439.56;;;17.39;100.00
9419;BME280;4748;50.802;7.132;2023-05-23T10:53:28;101447.59;;;17.50;100.00
9419;BME280;4748;50.802;7.132;2023-05-23T10:55:55;101437.13;;;17.54;100.00
9419;BME280;4748;50.802;7.132;2023-05-23T10:58:20;101444.03;;;17.78;100.00
9419;BME280;4748;50.802;7.132;2023-05-23T11:00:59;101447.50;;;18.11;100.00
9419;BME280;4748;50.802;7.132;2023-05-23T11:03:36;101448.56;;;18.26;100.00
9419;BME280;4748;50.802;7.132;2023-05-23T11:06:03;101459.63;;;18.41;100.00
9419;BME280;4748;50.802;7.132;2023-05-23T11:08:37;101446.78;;;18.53;100.00
9419;BME280;4748;50.802;7.132;2023-05-23T11:11:04;101455.28;;;18.40;100.00
9419;BME280;4748;50.802;7.132;2023-05-23T11:16:40;101446.59;;;18.05;100.00
9419;BME280;4748;50.802;7.132;2023-05-23T11:21:54;101457.00;;;17.59;100.00
9419;BME280;4748;50.802;7.132;2023-05-23T11:24:20;101460.75;;;17.58;100.00
9419;BME280;4748;50.802;7.132;2023-05-23T11:26:53;101463.94;;;17.72;100.00
9419;BME280;4748;50.802;7.132;2023-05-23T11:29:24;101477.16;;;17.52;100.00
9419;BME280;4748;50.802;7.132;2023-05-23T11:31:50;101474.09;;;17.32;100.00
9419;BME280;4748;50.802;7.132;2023-05-23T11:34:17;101483.06;;;17.21;100.00
9419;BME280;4748;50.802;7.132;2023-05-23T11:36:42;101478.59;;;17.27;100.00
9419;BME280;4748;50.802;7.132;2023-05-23T11:39:08;101487.63;;;17.32;100.00
9419;BME280;4748;50.802;7.132;2023-05-23T11:41:34;101485.63;;;17.55;100.00
9419;BME280;4748;50.802;7.132;2023-05-23T11:44:00;101491.13;;;17.60;100.00
9419;BME280;4748;50.802;7.132;2023-05-23T11:46:26;101482.44;;;17.91;100.00
9419;BME280;4748;50.802;7.132;2023-05-23T11:48:51;101485.78;;;18.14;100.00
9419;BME280;4748;50.802;7.132;2023-05-23T11:51:17;101488.47;;;18.47;100.00
9419;BME280;4748;50.802;7.132;2023-05-23T11:53:44;101497.09;;;18.65;100.00
9419;BME280;4748;50.802;7.132;2023-05-23T11:56:10;101496.63;;;18.68;100.00
9419;BME280;4748;50.802;7.132;2023-05-23T11:58:36;101492.94;;;18.58;100.00
9419;BME280;4748;50.802;7.132;2023-05-23T12:01:03;101497.56;;;18.57;100.00
9419;BME280;4748;50.802;7.132;2023-05-23T12:03:29;101508.88;;;18.17;100.00
9419;BME280;4748;50.802;7.132;2023-05-23T12:05:55;101498.50;;;18.14;100.00
9419;BME280;4748;50.802;7.132;2023-05-23T12:08:20;101504.84;;;17.87;100.00
9419;BME280;4748;50.802;7.132;2023-05-23T12:10:57;101494.97;;;17.64;100.00
9419;BME280;4748;50.802;7.132;2023-05-23T12:13:23;101501.00;;;17.66;100.00
9419;BME280;4748;50.802;7.132;2023-05-23T12:15:53;101504.69;;;17.77;100.00
9419;BME280;4748;50.802;7.132;2023-05-23T12:18:19;101511.16;;;17.76;100.00
9419;BME280;4748;50.802;7.132;2023-05-23T12:20:48;101523.00;;;18.02;100.00
9419;BME280;4748;50.802;7.132;2023-05-23T12:23:23;101511.16;;;18.41;100.00
9419;BME280;4748;50.802;7.132;2023-05-23T12:25:53;101521.44;;;18.77;100.00
9419;BME280;4748;50.802;7.132;2023-05-23T12:28:20;101514.91;;;18.78;100.00
9419;BME280;4748;50.802;7.132;2023-05-23T12:30:45;101507.53;;;18.94;100.00
9419;BME280;4748;50.802;7.132;2023-05-23T12:33:11;101507.75;;;18.88;100.00
9419;BME280;4748;50.802;7.132;2023-05-23T12:35:41;101520.94;;;18.80;100.00
9419;BME280;4748;50.802;7.132;2023-05-23T12:38:06;101511.69;;;18.81;100.00
9419;BME280;4748;50.802;7.132;2023-05-23T12:40:32;101508.94;;;18.76;100.00
9419;BME280;4748;50.802;7.132;2023-05-23T12:42:58;101510.88;;;19.01;100.00
9419;BME280;4748;50.802;7.132;2023-05-23T12:45:30;101512.16;;;19.15;100.00
9419;BME280;4748;50.802;7.132;2023-05-23T12:47:56;101521.56;;;19.29;100.00
9419;BME280;4748;50.802;7.132;2023-05-23T12:50:21;101507.41;;;19.27;100.00
9419;BME280;4748;50.802;7.132;2023-05-23T12:52:47;101503.94;;;19.10;100.00
9419;BME280;4748;50.802;7.132;2023-05-23T12:55:12;101503.41;;;19.08;100.00
9419;BME280;4748;50.802;7.132;2023-05-23T12:57:38;101509.56;;;18.83;100.00
9419;BME280;4748;50.802;7.132;2023-05-23T13:00:04;101511.00;;;18.69;100.00
9419;BME280;4748;50.802;7.132;2023-05-23T13:02:30;101506.25;;;18.59;100.00
9419;BME280;4748;50.802;7.132;2023-05-23T13:04:56;101502.91;;;18.52;100.00
9419;BME280;4748;50.802;7.132;2023-05-23T13:07:22;101506.72;;;18.51;100.00
9419;BME280;4748;50.802;7.132;2023-05-23T13:09:47;101511.94;;;18.58;100.00
9419;BME280;4748;50.802;7.132;2023-05-23T13:12:12;101506.72;;;18.51;100.00
9419;BME280;4748;50.802;7.132;2023-05-23T13:14:38;101514.13;;;18.61;100.00
9419;BME280;4748;50.802;7.132;2023-05-23T13:17:03;101510.50;;;18.72;100.00
9419;BME280;4748;50.802;7.132;2023-05-23T13:19:29;101512.06;;;18.68;100.00
9419;BME280;4748;50.802;7.132;2023-05-23T13:21:54;101506.97;;;18.50;100.00
9419;BME280;4748;50.802;7.132;2023-05-23T13:24:20;101513.19;;;18.50;100.00
9419;BME280;4748;50.802;7.132;2023-05-23T13:26:45;101525.00;;;18.61;100.00
9419;BME280;4748;50.802;7.132;2023-05-23T13:29:11;101519.31;;;18.84;100.00
9419;BME280;4748;50.802;7.132;2023-05-23T13:31:36;101515.00;;;19.25;100.00
9419;BME280;4748;50.802;7.132;2023-05-23T13:34:01;101520.09;;;19.22;100.00
9419;BME280;4748;50.802;7.132;2023-05-23T13:36:27;101517.84;;;19.40;100.00
9419;BME280;4748;50.802;7.132;2023-05-23T13:38:52;101516.34;;;19.49;100.00
9419;BME280;4748;50.802;7.132;2023-05-23T13:41:18;101516.72;;;19.36;100.00
9419;BME280;4748;50.802;7.132;2023-05-23T13:43:43;101525.03;;;19.51;100.00
9419;BME280;4748;50.802;7.132;2023-05-23T13:46:09;101526.38;;;19.48;100.00
9419;BME280;4748;50.802;7.132;2023-05-23T13:48:35;101533.84;;;19.63;99.68
9419;BME280;4748;50.802;7.132;2023-05-23T13:51:00;101524.19;;;19.72;100.00
9419;BME280;4748;50.802;7.132;2023-05-23T13:53:26;101535.91;;;19.51;100.00
9419;BME280;4748;50.802;7.132;2023-05-23T13:55:52;101533.22;;;19.56;98.04
9419;BME280;4748;50.802;7.132;2023-05-23T13:58:17;101531.19;;;19.68;98.63
9419;BME280;4748;50.802;7.132;2023-05-23T14:00:42;101523.34;;;19.98;95.88
9419;BME280;4748;50.802;7.132;2023-05-23T14:03:08;101522.78;;;19.69;96.07
9419;BME280;4748;50.802;7.132;2023-05-23T14:05:34;101530.28;;;19.57;98.50
9419;BME280;4748;50.802;7.132;2023-05-23T14:08:00;101522.59;;;19.49;98.29
9419;BME280;4748;50.802;7.132;2023-05-23T14:10:26;101523.06;;;19.73;97.58
9419;BME280;4748;50.802;7.132;2023-05-23T14:12:51;101528.84;;;19.76;97.02
9419;BME280;4748;50.802;7.132;2023-05-23T14:15:16;101519.00;;;19.44;93.03
9419;BME280;4748;50.802;7.132;2023-05-23T14:17:42;101515.22;;;19.45;94.64
9419;BME280;4748;50.802;7.132;2023-05-23T14:20:08;101516.66;;;19.84;92.98
9419;BME280;4748;50.802;7.132;2023-05-23T14:22:33;101513.78;;;19.90;89.37
9419;BME280;4748;50.802;7.132;2023-05-23T14:24:59;101506.03;;;20.08;88.88
9419;BME280;4748;50.802;7.132;2023-05-23T14:27:25;101516.88;;;20.40;89.68
9419;BME280;4748;50.802;7.132;2023-05-23T14:29:51;101509.50;;;20.40;90.69
9419;BME280;4748;50.802;7.132;2023-05-23T14:32:16;101499.38;;;20.72;89.22
9419;BME280;4748;50.802;7.132;2023-05-23T14:34:41;101497.88;;;20.54;88.00
9419;BME280;4748;50.802;7.132;2023-05-23T14:37:07;101494.00;;;20.41;87.75
9419;BME280;4748;50.802;7.132;2023-05-23T14:39:32;101492.38;;;20.45;82.29
9419;BME280;4748;50.802;7.132;2023-05-23T14:41:57;101492.13;;;20.46;86.63
9419;BME280;4748;50.802;7.132;2023-05-23T14:44:23;101495.38;;;20.48;84.33
9419;BME280;4748;50.802;7.132;2023-05-23T14:46:48;101486.69;;;20.46;83.83
9419;BME280;4748;50.802;7.132;2023-05-23T14:49:17;101491.56;;;20.44;80.23
9419;BME280;4748;50.802;7.132;2023-05-23T14:51:43;101490.78;;;20.53;84.45
9419;BME280;4748;50.802;7.132;2023-05-23T14:54:08;101487.16;;;20.38;78.89
9419;BME280;4748;50.802;7.132;2023-05-23T14:56:34;101511.84;;;20.27;82.85
9419;BME280;4748;50.802;7.132;2023-05-23T14:59:02;101482.25;;;20.35;85.91
9419;BME280;4748;50.802;7.132;2023-05-23T15:01:27;101490.13;;;20.73;83.29
9419;BME280;4748;50.802;7.132;2023-05-23T15:03:53;101483.16;;;20.50;81.84
9419;BME280;4748;50.802;7.132;2023-05-23T15:06:18;101483.63;;;20.38;76.98
9419;BME280;4748;50.802;7.132;2023-05-23T15:08:43;101479.53;;;20.35;82.42
9419;BME280;4748;50.802;7.132;2023-05-23T15:11:10;101488.53;;;19.99;82.17
9419;BME280;4748;50.802;7.132;2023-05-23T15:13:36;101484.09;;;20.25;83.72
9419;BME280;4748;50.802;7.132;2023-05-23T15:16:01;101476.34;;;20.48;82.55
9419;BME280;4748;50.802;7.132;2023-05-23T15:18:27;101479.16;;;20.68;81.50
9419;BME280;4748;50.802;7.132;2023-05-23T15:20:52;101478.97;;;20.74;77.40
9419;BME280;4748;50.802;7.132;2023-05-23T15:23:17;101473.66;;;20.58;80.44
9419;BME280;4748;50.802;7.132;2023-05-23T15:25:43;101473.66;;;20.53;78.39
9419;BME280;4748;50.802;7.132;2023-05-23T15:28:08;101479.69;;;20.60;75.84
9419;BME280;4748;50.802;7.132;2023-05-23T15:30:34;101473.78;;;20.78;73.20
9419;BME280;4748;50.802;7.132;2023-05-23T15:33:01;101473.22;;;20.25;76.32
9419;BME280;4748;50.802;7.132;2023-05-23T15:35:26;101470.69;;;20.13;75.61
9419;BME280;4748;50.802;7.132;2023-05-23T15:37:51;101460.38;;;20.15;79.14
9419;BME280;4748;50.802;7.132;2023-05-23T15:40:17;101470.69;;;20.08;76.94
9419;BME280;4748;50.802;7.132;2023-05-23T15:42:42;101461.69;;;20.08;77.30
9419;BME280;4748;50.802;7.132;2023-05-23T15:45:08;101460.16;;;20.27;78.39
9419;BME280;4748;50.802;7.132;2023-05-23T15:47:33;101460.28;;;20.00;80.81
9419;BME280;4748;50.802;7.132;2023-05-23T15:49:59;101470.03;;;19.97;75.27
9419;BME280;4748;50.802;7.132;2023-05-23T15:52:24;101469.31;;;19.80;75.82
9419;BME280;4748;50.802;7.132;2023-05-23T15:54:49;101473.50;;;19.61;77.10
9419;BME280;4748;50.802;7.132;2023-05-23T15:57:15;101473.78;;;19.59;78.14
9419;BME280;4748;50.802;7.132;2023-05-23T15:59:40;101482.38;;;19.51;78.81
9419;BME280;4748;50.802;7.132;2023-05-23T16:02:06;101467.72;;;19.84;78.63
9419;BME280;4748;50.802;7.132;2023-05-23T16:04:32;101465.47;;;20.07;75.30
9419;BME280;4748;50.802;7.132;2023-05-23T16:07:00;101463.53;;;20.02;71.46
9419;BME280;4748;50.802;7.132;2023-05-23T16:09:25;101468.59;;;20.25;72.87
9419;BME280;4748;50.802;7.132;2023-05-23T16:11:51;101465.38;;;20.28;73.01
9419;BME280;4748;50.802;7.132;2023-05-23T16:14:17;101468.22;;;20.53;70.03
9419;BME280;4748;50.802;7.132;2023-05-23T16:16:42;101464.16;;;20.55;68.27
9419;BME280;4748;50.802;7.132;2023-05-23T16:19:08;101470.78;;;20.69;69.17
9419;BME280;4748;50.802;7.132;2023-05-23T16:21:33;101467.13;;;20.54;70.91
9419;BME280;4748;50.802;7.132;2023-05-23T16:23:58;101455.03;;;20.35;68.89
9419;BME280;4748;50.802;7.132;2023-05-23T16:26:24;101464.44;;;20.59;71.76
9419;BME280;4748;50.802;7.132;2023-05-23T16:28:50;101466.28;;;21.14;69.56
9419;BME280;4748;50.802;7.132;2023-05-23T16:31:15;101467.59;;;20.97;72.54
9419;BME280;4748;50.802;7.132;2023-05-23T16:33:42;101463.53;;;21.04;69.61
9419;BME280;4748;50.802;7.132;2023-05-23T16:36:07;101468.00;;;21.40;70.83
9419;BME280;4748;50.802;7.132;2023-05-23T16:38:33;101462.56;;;21.60;64.12
9419;BME280;4748;50.802;7.132;2023-05-23T16:40:58;101457.97;;;21.70;67.54
9419;BME280;4748;50.802;7.132;2023-05-23T16:43:23;101456.03;;;21.61;69.19
9419;BME280;4748;50.802;7.132;2023-05-23T16:45:49;101455.22;;;21.70;68.66